createdAt,value
2023-04-04T00:01:42.062Z,5.99
2023-04-04T00:04:11.755Z,5.96
2023-04-04T00:06:44.456Z,5.93
2023-04-04T00:09:16.400Z,5.90
2023-04-04T00:11:45.819Z,5.84
2023-04-04T00:14:15.616Z,5.83
2023-04-04T00:16:44.936Z,6.05
2023-04-04T00:19:18.209Z,6.05
2023-04-04T00:21:48.425Z,5.99
2023-04-04T00:24:20.304Z,5.92
2023-04-04T00:26:49.631Z,5.92
2023-04-04T00:29:18.925Z,5.88
2023-04-04T00:31:48.351Z,5.85
2023-04-04T00:34:17.732Z,5.78
2023-04-04T00:36:47.879Z,5.71
2023-04-04T00:39:20.108Z,5.58
2023-04-04T00:41:51.608Z,5.53
2023-04-04T00:44:21.485Z,5.56
2023-04-04T00:46:51.185Z,5.53
2023-04-04T00:49:20.764Z,5.38
2023-04-04T00:51:53.537Z,5.27
2023-04-04T00:54:25.532Z,5.29
2023-04-04T00:56:55.766Z,5.29
2023-04-04T00:59:26.241Z,5.27
2023-04-04T01:02:00.184Z,5.32
2023-04-04T01:04:30.144Z,5.25
2023-04-04T01:07:00.571Z,5.25
2023-04-04T01:09:32.792Z,5.23
2023-04-04T01:12:02.921Z,5.23
2023-04-04T01:14:32.312Z,5.21
2023-04-04T01:17:04.571Z,5.23
2023-04-04T01:19:37.792Z,5.27
2023-04-04T01:22:09.130Z,5.18
2023-04-04T01:24:45.161Z,5.14
2023-04-04T01:27:17.328Z,5.20
2023-04-04T01:29:46.707Z,5.22
2023-04-04T01:32:20.051Z,5.12
2023-04-04T01:34:59.325Z,5.12
2023-04-04T01:37:37.870Z,5.07
2023-04-04T01:40:14.409Z,5.06
2023-04-04T01:42:48.060Z,5.07
2023-04-04T01:45:17.587Z,5.07
2023-04-04T01:47:47.353Z,4.97
2023-04-04T01:50:19.159Z,5.06
2023-04-04T01:52:51.016Z,5.01
2023-04-04T01:55:23.298Z,4.97
2023-04-04T01:57:57.450Z,4.97
2023-04-04T02:00:27.114Z,4.98
2023-04-04T02:02:57.717Z,4.90
2023-04-04T02:05:28.648Z,4.86
2023-04-04T02:07:58.026Z,4.85
2023-04-04T02:10:30.039Z,4.85
2023-04-04T02:13:02.145Z,4.83
2023-04-04T02:15:31.766Z,4.90
2023-04-04T02:18:02.072Z,4.87
2023-04-04T02:20:31.749Z,4.93
2023-04-04T02:23:01.211Z,4.85
2023-04-04T02:25:30.547Z,4.87
2023-04-04T02:28:02.432Z,4.80
2023-04-04T02:30:31.817Z,4.79
2023-04-04T02:33:01.465Z,4.79
2023-04-04T02:35:31.081Z,4.62
2023-04-04T02:38:00.421Z,4.60
2023-04-04T02:40:29.739Z,4.64
2023-04-04T02:43:01.693Z,4.54
2023-04-04T02:45:31.081Z,4.53
2023-04-04T02:48:00.406Z,4.61
2023-04-04T02:50:29.846Z,4.62
2023-04-04T02:53:02.563Z,4.47
2023-04-04T02:55:31.931Z,4.48
2023-04-04T02:58:04.131Z,4.53
2023-04-04T03:00:33.463Z,4.51
2023-04-04T03:03:02.933Z,4.52
2023-04-04T03:05:33.098Z,4.57
2023-04-04T03:08:06.112Z,4.50
2023-04-04T03:10:37.602Z,4.56
2023-04-04T03:13:09.553Z,4.49
2023-04-04T03:15:40.904Z,4.54
2023-04-04T03:18:10.437Z,4.56
2023-04-04T03:20:40.233Z,4.47
2023-04-04T03:23:13.004Z,4.45
2023-04-04T03:25:42.378Z,4.51
2023-04-04T03:28:14.785Z,4.42
2023-04-04T03:30:44.515Z,4.41
2023-04-04T03:33:13.812Z,4.52
2023-04-04T03:35:43.476Z,4.57
2023-04-04T03:38:13.840Z,4.60
2023-04-04T03:40:46.388Z,4.60
2023-04-04T03:43:18.340Z,4.62
2023-04-04T03:45:48.372Z,4.50
2023-04-04T03:48:17.897Z,4.64
2023-04-04T03:50:49.036Z,4.60
2023-04-04T03:53:18.389Z,4.54
2023-04-04T03:55:47.756Z,4.63
2023-04-04T03:58:23.078Z,4.67
2023-04-04T04:00:52.577Z,4.73
2023-04-04T04:03:22.067Z,4.73
2023-04-04T04:05:51.609Z,4.75
2023-04-04T04:08:21.969Z,4.70
2023-04-04T04:10:52.447Z,4.79
2023-04-04T04:13:24.372Z,4.74
2023-04-04T04:15:53.857Z,4.70
2023-04-04T04:18:23.217Z,4.74
2023-04-04T04:20:52.562Z,4.64
2023-04-04T04:23:21.864Z,4.59
2023-04-04T04:25:51.296Z,4.38
2023-04-04T04:28:20.655Z,4.40
2023-04-04T04:30:52.936Z,4.35
2023-04-04T04:33:22.507Z,4.35
2023-04-04T04:35:51.957Z,4.31
2023-04-04T04:38:21.280Z,4.40
2023-04-04T04:40:51.032Z,4.51
2023-04-04T04:43:20.660Z,4.58
2023-04-04T04:45:53.091Z,4.57
2023-04-04T04:48:22.710Z,4.64
2023-04-04T04:50:52.111Z,4.51
2023-04-04T04:53:21.959Z,4.62
2023-04-04T04:55:52.425Z,4.48
2023-04-04T04:58:24.987Z,4.37
2023-04-04T05:01:00.245Z,4.57
2023-04-04T05:03:29.664Z,4.55
2023-04-04T05:05:59.024Z,4.53
2023-04-04T05:08:28.633Z,4.59
2023-04-04T05:10:57.967Z,4.56
2023-04-04T05:13:27.354Z,4.66
2023-04-04T05:15:56.676Z,4.62
2023-04-04T05:18:28.901Z,4.66
2023-04-04T05:20:58.308Z,4.62
2023-04-04T05:23:27.813Z,4.61
2023-04-04T05:25:57.567Z,4.66
2023-04-04T05:28:26.934Z,4.57
2023-04-04T05:30:57.455Z,4.50
2023-04-04T05:33:30.082Z,4.51
2023-04-04T05:35:59.562Z,4.39
2023-04-04T05:38:29.540Z,4.36
2023-04-04T05:40:58.868Z,4.34
2023-04-04T05:43:28.748Z,4.36
2023-04-04T05:45:58.138Z,4.36
2023-04-04T05:48:30.237Z,4.29
2023-04-04T05:50:59.547Z,4.34
2023-04-04T05:53:28.862Z,4.29
2023-04-04T05:55:58.952Z,4.29
2023-04-04T05:58:28.253Z,4.26
2023-04-04T06:00:57.584Z,4.25
2023-04-04T06:03:29.002Z,4.23
2023-04-04T06:06:01.287Z,4.21
2023-04-04T06:08:33.568Z,4.22
2023-04-04T06:11:07.229Z,4.24
2023-04-04T06:13:37.066Z,4.22
2023-04-04T06:16:06.796Z,4.21
2023-04-04T06:18:36.281Z,4.19
2023-04-04T06:21:11.226Z,4.27
2023-04-04T06:23:40.524Z,4.17
2023-04-04T06:26:10.281Z,4.16
2023-04-04T06:28:39.639Z,4.17
2023-04-04T06:31:09.154Z,4.13
2023-04-04T06:33:38.612Z,4.17
2023-04-04T06:36:11.015Z,4.17
2023-04-04T06:38:40.355Z,4.17
2023-04-04T06:41:10.744Z,4.17
2023-04-04T06:43:40.056Z,4.28
2023-04-04T06:46:09.441Z,4.37
2023-04-04T06:48:38.760Z,4.33
2023-04-04T06:51:11.383Z,4.36
2023-04-04T06:53:41.078Z,4.36
2023-04-04T06:56:12.164Z,4.36
2023-04-04T06:58:42.034Z,4.48
2023-04-04T07:01:11.874Z,4.53
2023-04-04T07:03:41.657Z,4.51
2023-04-04T07:06:14.066Z,4.51
2023-04-04T07:08:43.752Z,4.37
2023-04-04T07:11:13.934Z,4.42
2023-04-04T07:13:43.256Z,4.44
2023-04-04T07:16:12.554Z,4.40
2023-04-04T07:18:41.881Z,4.48
2023-04-04T07:21:13.764Z,4.50
2023-04-04T07:23:43.110Z,4.56
2023-04-04T07:26:12.430Z,4.53
2023-04-04T07:28:41.770Z,4.53
2023-04-04T07:31:11.437Z,4.48
2023-04-04T07:33:40.834Z,4.66
2023-04-04T07:36:12.913Z,4.66
2023-04-04T07:38:42.283Z,4.49
2023-04-04T07:41:11.758Z,4.60
2023-04-04T07:43:41.364Z,4.78
2023-04-04T07:46:10.696Z,4.63
2023-04-04T07:48:40.031Z,4.66
2023-04-04T07:51:09.369Z,4.61
2023-04-04T07:53:41.248Z,4.62
2023-04-04T07:56:10.737Z,4.87
2023-04-04T07:58:40.050Z,4.90
2023-04-04T08:01:09.365Z,4.99
2023-04-04T08:03:38.976Z,5.06
2023-04-04T08:06:08.660Z,5.07
2023-04-04T08:08:38.032Z,5.29
2023-04-04T08:11:09.973Z,5.33
2023-04-04T08:13:39.262Z,5.43
2023-04-04T08:16:08.861Z,5.44
2023-04-04T08:18:38.822Z,5.51
2023-04-04T08:21:08.377Z,5.71
2023-04-04T08:23:37.681Z,5.71
2023-04-04T08:26:07.086Z,5.71
2023-04-04T08:28:39.117Z,5.87
2023-04-04T08:31:08.669Z,5.85
2023-04-04T08:36:13.792Z,6.05
2023-04-04T08:38:43.123Z,6.07
2023-04-04T08:41:15.707Z,6.24
2023-04-04T08:43:54.574Z,6.51
2023-04-04T08:46:25.107Z,6.55
2023-04-04T08:48:55.738Z,6.53
2023-04-04T08:51:27.398Z,6.56
2023-04-04T08:53:58.726Z,6.35
2023-04-04T08:56:28.856Z,6.96
2023-04-04T08:59:01.238Z,6.61
2023-04-04T09:01:31.158Z,6.68
2023-04-04T09:04:02.046Z,6.50
2023-04-04T09:06:32.241Z,6.42
2023-04-04T09:09:01.934Z,6.31
2023-04-04T09:11:33.947Z,6.83
2023-04-04T09:14:06.936Z,6.69
2023-04-04T09:16:36.729Z,6.62
2023-04-04T09:19:06.072Z,6.88
2023-04-04T09:21:36.562Z,6.73
2023-04-04T09:24:06.888Z,7.04
2023-04-04T09:26:51.370Z,7.09
2023-04-04T09:29:26.720Z,7.05
2023-04-04T09:31:56.665Z,7.17
2023-04-04T09:34:26.081Z,7.09
2023-04-04T09:36:56.881Z,7.11
2023-04-04T09:39:27.228Z,7.08
2023-04-04T09:41:56.906Z,7.00
2023-04-04T09:44:29.446Z,7.07
2023-04-04T09:47:11.937Z,7.39
2023-04-04T09:49:45.988Z,7.31
2023-04-04T09:52:21.052Z,7.28
2023-04-04T09:55:00.834Z,7.28
2023-04-04T09:57:32.585Z,7.36
2023-04-04T10:00:07.298Z,7.37
2023-04-04T10:02:36.886Z,7.56
2023-04-04T10:05:07.136Z,7.34
2023-04-04T10:07:37.334Z,7.63
2023-04-04T10:10:09.075Z,7.80
2023-04-04T10:12:39.641Z,7.27
2023-04-04T10:15:12.508Z,7.24
2023-04-04T10:17:43.390Z,7.44
2023-04-04T10:20:14.005Z,7.50
2023-04-04T10:22:45.012Z,7.89
2023-04-04T10:25:14.405Z,7.58
2023-04-04T10:27:43.730Z,7.82
2023-04-04T10:30:17.139Z,7.63
2023-04-04T10:32:52.996Z,7.85
2023-04-04T10:35:25.792Z,7.68
2023-04-04T10:38:00.401Z,7.64
2023-04-04T10:40:34.721Z,7.51
2023-04-04T10:43:06.783Z,7.67
2023-04-04T10:45:40.572Z,7.89
2023-04-04T10:48:11.143Z,8.13
2023-04-04T10:50:41.365Z,8.06
2023-04-04T10:53:11.385Z,7.78
2023-04-04T10:55:42.199Z,7.92
2023-04-04T10:58:12.781Z,8.09
2023-04-04T11:00:55.699Z,8.19
2023-04-04T11:03:25.586Z,8.06
2023-04-04T11:06:01.797Z,8.21
2023-04-04T11:08:33.212Z,8.43
2023-04-04T11:11:05.154Z,8.20
2023-04-04T11:13:39.968Z,8.22
2023-04-04T11:16:15.925Z,8.36
2023-04-04T11:18:50.803Z,8.11
2023-04-04T11:21:24.824Z,8.38
2023-04-04T11:24:17.359Z,8.29
2023-04-04T11:26:48.617Z,8.03
2023-04-04T11:29:26.436Z,8.17
2023-04-04T11:31:58.570Z,8.09
2023-04-04T11:34:35.189Z,8.05
2023-04-04T11:37:19.044Z,8.33
2023-04-04T11:39:57.446Z,8.33
2023-04-04T11:42:27.221Z,8.44
2023-04-04T11:45:07.715Z,8.38
2023-04-04T11:47:42.367Z,8.57
2023-04-04T11:50:13.984Z,8.62
2023-04-04T11:52:45.448Z,8.64
2023-04-04T11:55:19.985Z,8.39
2023-04-04T11:57:51.539Z,8.43
2023-04-04T12:00:32.502Z,8.30
2023-04-04T12:03:04.628Z,8.39
2023-04-04T12:05:34.314Z,8.39
2023-04-04T12:08:04.516Z,8.78
2023-04-04T12:10:36.809Z,8.88
2023-04-04T12:13:09.952Z,8.78
2023-04-04T12:15:39.943Z,8.62
2023-04-04T12:18:12.549Z,8.80
2023-04-04T12:20:43.350Z,9.01
2023-04-04T12:23:12.652Z,8.74
2023-04-04T12:25:44.956Z,8.90
2023-04-04T12:28:14.677Z,9.01
2023-04-04T12:30:44.213Z,8.93
2023-04-04T12:33:16.641Z,8.86
2023-04-04T12:35:54.912Z,8.97
2023-04-04T12:38:24.984Z,8.81
2023-04-04T12:40:54.316Z,8.91
2023-04-04T12:43:23.680Z,8.85
2023-04-04T12:45:53.580Z,8.71
2023-04-04T12:48:30.420Z,9.06
2023-04-04T12:51:03.787Z,8.96
2023-04-04T12:53:33.294Z,9.01
2023-04-04T12:56:05.221Z,9.15
2023-04-04T12:58:37.716Z,9.17
2023-04-04T13:01:08.447Z,9.21
2023-04-04T13:03:41.792Z,9.03
2023-04-04T13:06:15.113Z,8.92
2023-04-04T13:08:54.555Z,9.14
2023-04-04T13:11:24.550Z,9.20
2023-04-04T13:14:03.515Z,9.12
2023-04-04T13:16:35.937Z,8.88
2023-04-04T13:19:08.428Z,9.06
2023-04-04T13:21:37.884Z,8.91
2023-04-04T13:24:07.544Z,8.84
2023-04-04T13:26:36.875Z,9.06
2023-04-04T13:29:06.191Z,8.92
2023-04-04T13:31:35.544Z,9.05
2023-04-04T13:34:04.840Z,9.14
2023-04-04T13:36:36.889Z,8.84
2023-04-04T13:39:06.436Z,8.83
2023-04-04T13:41:35.773Z,8.94
2023-04-04T13:44:05.085Z,9.08
2023-04-04T13:46:34.583Z,9.11
2023-04-04T13:49:04.364Z,8.91
2023-04-04T13:51:36.288Z,9.01
2023-04-04T13:54:05.952Z,9.04
2023-04-04T13:56:35.270Z,9.16
2023-04-04T13:59:04.645Z,8.98
2023-04-04T14:01:34.292Z,9.14
2023-04-04T14:06:55.724Z,9.07
2023-04-04T14:09:25.932Z,9.10
2023-04-04T14:11:55.325Z,9.14
2023-04-04T14:14:24.919Z,9.16
2023-04-04T14:16:54.444Z,9.07
2023-04-04T14:19:23.752Z,9.06
2023-04-04T14:21:55.679Z,9.08
2023-04-04T14:24:25.703Z,9.11
2023-04-04T14:26:55.004Z,9.08
2023-04-04T14:29:24.647Z,8.78
2023-04-04T14:31:55.717Z,8.71
2023-04-04T14:34:26.737Z,8.96
2023-04-04T14:36:58.911Z,9.23
2023-04-04T14:39:28.377Z,9.10
2023-04-04T14:41:57.829Z,9.11
2023-04-04T14:44:27.594Z,9.21
2023-04-04T14:46:56.980Z,9.14
2023-04-04T14:49:26.860Z,9.18
2023-04-04T14:51:58.779Z,9.09
2023-04-04T14:54:28.090Z,9.19
2023-04-04T14:56:58.019Z,9.15
2023-04-04T14:59:27.330Z,9.16
2023-04-04T15:01:56.649Z,9.12
2023-04-04T15:04:26.346Z,8.96
2023-04-04T15:07:02.384Z,9.00
2023-04-04T15:09:32.935Z,9.02
2023-04-04T15:12:02.624Z,9.10
2023-04-04T15:14:31.938Z,8.98
2023-04-04T15:17:01.612Z,9.09
2023-04-04T15:19:31.539Z,9.14
2023-04-04T15:22:03.419Z,8.88
2023-04-04T15:24:32.956Z,9.00
2023-04-04T15:27:02.380Z,9.01
2023-04-04T15:29:31.697Z,9.18
2023-04-04T15:32:01.296Z,9.23
2023-04-04T15:34:30.740Z,9.24
2023-04-04T15:37:04.156Z,9.16
2023-04-04T15:39:46.016Z,9.34
2023-04-04T15:42:19.423Z,9.26
2023-04-04T15:44:48.742Z,9.32
2023-04-04T15:47:18.490Z,9.36
2023-04-04T15:49:47.821Z,9.35
2023-04-04T15:52:17.118Z,9.36
2023-04-04T15:54:49.025Z,9.26
2023-04-04T15:57:18.329Z,9.29
2023-04-04T15:59:49.701Z,9.32
2023-04-04T16:02:19.213Z,9.28
2023-04-04T16:04:48.571Z,9.20
2023-04-04T16:07:17.904Z,9.35
2023-04-04T16:09:49.813Z,9.25
2023-04-04T16:12:20.282Z,9.36
2023-04-04T16:14:49.578Z,9.28
2023-04-04T16:17:18.929Z,9.29
2023-04-04T16:19:48.288Z,9.23
2023-04-04T16:22:17.882Z,9.31
2023-04-04T16:24:49.996Z,9.25
2023-04-04T16:27:19.303Z,9.27
2023-04-04T16:29:48.602Z,9.32
2023-04-04T16:32:17.939Z,9.17
2023-04-04T16:34:47.258Z,9.13
2023-04-04T16:37:17.761Z,9.20
2023-04-04T16:39:51.030Z,9.29
2023-04-04T16:42:20.494Z,9.26
2023-04-04T16:44:50.021Z,9.25
2023-04-04T16:47:19.302Z,9.23
2023-04-04T16:49:49.185Z,9.33
2023-04-04T16:52:18.721Z,9.31
2023-04-04T16:54:50.757Z,9.26
2023-04-04T16:57:20.188Z,9.29
2023-04-04T16:59:49.468Z,9.26
2023-04-04T17:02:18.777Z,9.29
2023-04-04T17:04:48.257Z,9.37
2023-04-04T17:07:17.684Z,9.20
2023-04-04T17:09:51.546Z,9.39
2023-04-04T17:12:20.884Z,9.16
2023-04-04T17:14:50.350Z,9.15
2023-04-04T17:17:20.124Z,9.13
2023-04-04T17:19:49.426Z,9.16
2023-04-04T17:22:18.897Z,9.27
2023-04-04T17:24:50.955Z,9.34
2023-04-04T17:27:20.471Z,9.35
2023-04-04T17:29:49.784Z,9.31
2023-04-04T17:32:19.769Z,9.24
2023-04-04T17:34:49.856Z,9.20
2023-04-04T17:37:20.170Z,9.32
2023-04-04T17:39:52.331Z,9.17
2023-04-04T17:42:21.644Z,9.30
2023-04-04T17:44:50.950Z,9.23
2023-04-04T17:47:20.510Z,9.30
2023-04-04T17:49:51.316Z,9.27
2023-04-04T17:52:21.264Z,9.20
2023-04-04T17:54:53.562Z,9.28
2023-04-04T17:57:23.064Z,9.37
2023-04-04T17:59:53.040Z,9.38
2023-04-04T18:02:22.845Z,9.41
2023-04-04T18:04:52.301Z,9.40
2023-04-04T18:07:22.065Z,9.36
2023-04-04T18:09:53.963Z,9.35
2023-04-04T18:12:24.739Z,9.34
2023-04-04T18:14:54.069Z,9.40
2023-04-04T18:17:23.925Z,9.42
2023-04-04T18:19:54.782Z,9.39
2023-04-04T18:22:24.258Z,9.33
2023-04-04T18:24:56.596Z,9.34
2023-04-04T18:27:26.779Z,9.21
2023-04-04T18:29:56.356Z,9.17
2023-04-04T18:32:28.535Z,9.15
2023-04-04T18:34:57.894Z,9.05
2023-04-04T18:37:27.549Z,9.15
2023-04-04T18:39:59.471Z,9.10
2023-04-04T18:42:29.003Z,9.12
2023-04-04T18:44:58.572Z,9.24
2023-04-04T18:47:28.539Z,9.06
2023-04-04T18:49:57.881Z,9.10
2023-04-04T18:52:27.181Z,9.00
2023-04-04T18:54:59.091Z,9.05
2023-04-04T18:57:28.447Z,9.01
2023-04-04T18:59:57.768Z,9.05
2023-04-04T19:02:27.314Z,8.95
2023-04-04T19:04:57.561Z,8.97
2023-04-04T19:07:28.827Z,8.98
2023-04-04T19:10:00.939Z,9.04
2023-04-04T19:12:30.488Z,9.08
2023-04-04T19:15:01.379Z,9.14
2023-04-04T19:17:30.791Z,9.18
2023-04-04T19:20:00.168Z,8.93
2023-04-04T19:22:29.569Z,8.81
2023-04-04T19:25:03.812Z,8.70
2023-04-04T19:27:33.128Z,8.82
2023-04-04T19:30:03.494Z,8.83
2023-04-04T19:32:33.507Z,8.81
2023-04-04T19:35:03.825Z,8.93
2023-04-04T19:37:33.397Z,8.88
2023-04-04T19:40:05.456Z,9.08
2023-04-04T19:42:34.789Z,9.05
2023-04-04T19:45:04.156Z,9.13
2023-04-04T19:47:33.549Z,9.09
2023-04-04T19:50:02.862Z,9.07
2023-04-04T19:52:32.434Z,9.01
2023-04-04T19:55:04.027Z,9.08
2023-04-04T19:57:35.951Z,9.07
2023-04-04T20:00:14.004Z,9.06
2023-04-04T20:02:56.926Z,9.13
2023-04-04T20:05:56.450Z,9.10
2023-04-04T20:08:25.928Z,9.09
2023-04-04T20:10:59.226Z,9.03
2023-04-04T20:13:32.867Z,9.11
2023-04-04T20:16:11.884Z,9.11
2023-04-04T20:18:42.653Z,9.06
2023-04-04T20:21:14.602Z,9.14
2023-04-04T20:23:47.081Z,8.97
2023-04-04T20:26:37.129Z,8.92
2023-04-04T20:29:11.525Z,8.78
2023-04-04T20:31:44.788Z,8.71
2023-04-04T20:34:42.596Z,8.80
2023-04-04T20:37:14.981Z,8.65
2023-04-04T20:39:50.606Z,8.64
2023-04-04T20:42:34.149Z,8.68
2023-04-04T20:45:16.288Z,8.56
2023-04-04T20:47:47.437Z,8.58
2023-04-04T20:50:48.607Z,8.57
2023-04-04T20:53:26.364Z,8.43
2023-04-04T20:55:56.278Z,8.47
2023-04-04T20:58:29.751Z,8.39
2023-04-04T21:01:08.191Z,8.55
2023-04-04T21:03:39.238Z,8.50
2023-04-04T21:06:14.235Z,8.62
2023-04-04T21:08:48.723Z,8.60
2023-04-04T21:11:27.364Z,8.65
2023-04-04T21:13:57.750Z,8.63
2023-04-04T21:16:30.878Z,8.58
2023-04-04T21:19:05.311Z,8.57
2023-04-04T21:21:34.731Z,8.47
2023-04-04T21:24:07.040Z,8.47
2023-04-04T21:26:37.883Z,8.44
2023-04-04T21:29:09.089Z,8.34
2023-04-04T21:31:43.461Z,8.16
2023-04-04T21:34:16.177Z,8.21
2023-04-04T21:36:46.700Z,8.02
2023-04-04T21:39:18.006Z,7.89
2023-04-04T21:41:47.679Z,7.89
2023-04-04T21:44:16.991Z,7.80
2023-04-04T21:46:49.628Z,7.81
2023-04-04T21:49:19.025Z,7.82
2023-04-04T21:51:48.327Z,7.76
2023-04-04T21:54:17.844Z,7.76
2023-04-04T21:56:47.180Z,7.74
2023-04-04T21:59:19.368Z,7.72
2023-04-04T22:01:53.078Z,7.71
2023-04-04T22:04:22.507Z,7.72
2023-04-04T22:06:51.869Z,7.82
2023-04-04T22:09:22.772Z,7.75
2023-04-04T22:11:53.913Z,7.75
2023-04-04T22:14:23.244Z,7.68
2023-04-04T22:16:58.966Z,7.55
2023-04-04T22:19:34.817Z,7.63
2023-04-04T22:22:05.525Z,7.59
2023-04-04T22:24:34.839Z,7.56
2023-04-04T22:27:05.345Z,7.52
2023-04-04T22:29:34.735Z,7.53
2023-04-04T22:32:06.956Z,7.46
2023-04-04T22:34:37.192Z,7.47
2023-04-04T22:37:06.792Z,7.38
2023-04-04T22:39:36.121Z,7.35
2023-04-04T22:42:05.456Z,7.35
2023-04-04T22:44:35.014Z,7.30
2023-04-04T22:47:08.092Z,7.14
2023-04-04T22:49:38.706Z,7.10
2023-04-04T22:52:13.024Z,7.16
2023-04-04T22:54:42.400Z,7.10
2023-04-04T22:57:11.841Z,7.07
2023-04-04T22:59:41.272Z,7.04
2023-04-04T23:02:13.223Z,7.05
2023-04-04T23:04:42.594Z,6.93
2023-04-04T23:07:12.319Z,6.86
2023-04-04T23:09:41.721Z,7.01
2023-04-04T23:12:11.176Z,6.94
2023-04-04T23:14:41.022Z,6.92
2023-04-04T23:17:13.083Z,6.94
2023-04-04T23:19:42.503Z,6.91
2023-04-04T23:22:11.979Z,6.92
2023-04-04T23:24:41.717Z,6.88
2023-04-04T23:27:11.465Z,6.72
2023-04-04T23:29:41.364Z,6.81
2023-04-04T23:32:14.174Z,6.67
2023-04-04T23:34:43.480Z,6.66
2023-04-04T23:37:12.791Z,6.72
2023-04-04T23:39:42.078Z,6.73
2023-04-04T23:42:11.826Z,6.70
2023-04-04T23:44:41.120Z,6.73
2023-04-04T23:47:13.875Z,6.71
2023-04-04T23:49:43.271Z,6.65
2023-04-04T23:52:12.688Z,6.65
2023-04-04T23:54:42.016Z,6.62
2023-04-04T23:57:11.415Z,6.65
2023-04-04T23:59:40.755Z,6.65
